CW7015 Weather Reports


Display with metric or nautical units.
time (UTC)temp
F
wind
direction
speed
MPH
gust
MPH
rain 1hr
in
rain 24hr
in
rain mn
in
humidity
%
barometer
mb
20240227224616 28 35 2.0 6.0 0.00 0.05 0.05 72 1005.5
20240227224600 28 27 3.0 6.0 0.00 0.05 0.05 72 1006.3
20240227224130 28 111 2.0 5.0 0.00 0.05 0.05 71 1005.5
20240227224106 28 71 3.0 6.0 0.00 0.05 0.05 71 1006.3
20240227223541 28 38 3.0 8.0 0.00 0.05 0.05 71 1006.2
20240227223517 28 32 2.0 8.0 0.00 0.05 0.05 71 1005.3
20240227223121 28 34 4.0 8.0 0.00 0.05 0.05 71 1005.2
20240227223035 28 67 5.0 8.0 0.00 0.05 0.05 71 1006.2
20240227222602 29 108 3.0 8.0 0.00 0.05 0.05 71 1006.0
20240227222510 28 31 3.0 8.0 0.00 0.05 0.05 71 1004.9
20240227222119 28 49 3.0 7.0 0.00 0.05 0.05 71 1004.9
20240227222030 29 42 4.0 7.0 0.00 0.05 0.05 71 1005.9
20240227221554 28 42 3.0 8.0 0.00 0.05 0.05 73 1005.9
20240227221530 28 89 2.0 8.0 0.00 0.05 0.05 72 1004.8
20240227221132 28 136 3.0 8.0 0.00 0.05 0.05 71 1004.7
20240227221048 28 84 3.0 8.0 0.00 0.05 0.05 71 1005.8
20240227220608 28 63 3.0 8.0 0.00 0.05 0.05 71 1004.3
20240227220544 29 74 4.0 8.0 0.00 0.05 0.05 71 1005.5
20240227220038 29 57 3.0 7.0 0.00 0.05 0.05 72 1005.6
20240227220011 28 68 2.0 7.0 0.00 0.05 0.05 71 1004.3
20240227215618 29 63 4.0 7.0 0.00 0.05 0.05 70 1004.0
20240227215531 29 35 5.0 7.0 0.00 0.05 0.05 70 1005.4
20240227215052 29 42 2.0 5.0 0.00 0.05 0.05 71 1003.8
20240227215025 29 111 3.0 5.0 0.00 0.05 0.05 71 1005.2
20240227214627 29 84 1.0 8.0 0.01 0.05 0.05 72 1003.5
20240227214613 29 85 2.0 8.0 0.01 0.05 0.05 72 1004.9
20240227214047 30 72 4.0 8.0 0.01 0.05 0.05 71 1004.8
20240227214010 29 65 3.0 8.0 0.01 0.05 0.05 71 1003.3
20240227213617 29 147 3.0 7.0 0.01 0.05 0.05 71 1003.0
20240227213542 30 146 3.0 7.0 0.01 0.05 0.05 70 1004.5
20240227213152 30 360 3.0 6.0 0.01 0.05 0.05 71 1002.9
20240227213106 30 360 3.0 6.0 0.01 0.05 0.05 71 1004.4
20240227212610 30 360 2.0 4.0 0.01 0.05 0.05 69 1002.7
20240227212539 30 360 2.0 4.0 0.01 0.05 0.05 69 1004.3
20240227212050 30 360 1.0 6.0 0.02 0.05 0.05 70 1002.6
20240227212034 31 360 2.0 6.0 0.02 0.05 0.05 70 1004.3
20240227211619 30 360 3.0 6.0 0.02 0.05 0.05 71 1002.6
20240227211540 31 360 4.0 6.0 0.02 0.05 0.05 70 1004.1
20240227211141 30 360 1.0 5.0 0.02 0.05 0.05 72 1002.3
20240227211111 30 360 1.0 5.0 0.02 0.05 0.05 72 1004.1
20240227210603 29 360 2.0 6.0 0.03 0.05 0.05 69 1002.1
20240227210543 30 360 3.0 6.0 0.03 0.05 0.05 69 1004.0
20240227210038 30 360 3.0 6.0 0.03 0.05 0.05 71 1004.1
20240227210006 29 360 3.0 6.0 0.03 0.05 0.05 71 1002.2
20240227205613 29 360 2.0 6.0 0.03 0.05 0.05 70 1002.3
20240227205533 30 360 3.0 6.0 0.03 0.05 0.05 70 1004.3
20240227205052 29 360 2.0 5.0 0.04 0.05 0.05 69 1002.3
20240227205027 29 360 3.0 5.0 0.04 0.05 0.05 69 1004.3
20240227204625 29 360 2.0 6.0 0.03 0.04 0.04 70 1002.1
20240227204545 29 360 3.0 6.0 0.03 0.04 0.04 70 1004.1
20240227204116 29 360 2.0 6.0 0.03 0.04 0.04 70 1002.0
20240227204029 30 360 3.0 5.0 0.03 0.04 0.04 70 1004.1
20240227203633 29 360 2.0 5.0 0.03 0.04 0.04 73 1001.9
20240227203553 30 360 2.0 5.0 0.03 0.04 0.04 73 1004.0
20240227203111 29 360 2.0 6.0 0.04 0.04 0.04 72 1002.0
20240227203048 30 360 3.0 6.0 0.04 0.04 0.04 72 1004.1
20240227202542 30 360 3.0 6.0 0.04 0.04 0.04 72 1003.6
20240227202513 29 360 3.0 6.0 0.04 0.04 0.04 73 1001.5
20240227202121 29 360 2.0 5.0 0.03 0.03 0.03 74 1001.6
20240227202032 30 360 2.0 5.0 0.03 0.03 0.03 74 1003.8
20240227201556 29 360 2.0 5.0 0.03 0.03 0.03 72 1003.8
20240227201502 29 360 2.0 5.0 0.03 0.03 0.03 73 1001.6
20240227201103 30 360 3.0 5.0 0.03 0.03 0.03 73 1003.9
20240227201017 29 360 2.0 5.0 0.03 0.03 0.03 73 1001.6
20240227200624 29 360 2.0 5.0 0.02 0.02 0.02 74 1001.5
20240227200537 29 360 3.0 5.0 0.02 0.02 0.02 74 1003.8
20240227200103 29 360 1.0 5.0 0.02 0.02 0.02 74 1001.3
20240227200031 29 360 1.0 5.0 0.02 0.02 0.02 73 1003.8
20240227195658 29 360 3.0 5.0 0.02 0.02 0.02 72 1004.0
20240227195100 29 360 1.0 5.0 0.01 0.01 0.01 75 1001.9
20240227195039 29 360 1.0 5.0 0.01 0.01 0.01 75 1004.4
20240227194533 29 360 1.0 4.0 0.01 0.01 0.01 75 1004.2
20240227194510 28 360 1.0 4.0 0.01 0.01 0.01 76 1001.7
20240227194104 28 51 0.0 7.0 0.01 0.01 0.01 77 1001.8
20240227194026 28 45 1.0 7.0 0.01 0.01 0.01 77 1004.3
20240227193638 28 42 2.0 7.0 0.01 0.01 0.01 77 1001.5
20240227193615 28 78 3.0 7.0 0.01 0.01 0.01 77 1004.2
20240227193149 27 100 1.0 4.0 0.00 0.00 0.01 78 1002.0
20240227193046 28 88 1.0 4.0 0.00 0.00 0.00 78 1004.7
20240227192616 28 36 3.0 4.0 0.00 0.00 0.00 77 1004.7
20240227192521 27 37 2.0 4.0 0.00 0.00 0.00 78 1002.0
20240227192126 27 63 1.0 4.0 0.00 0.00 0.00 78 1002.4
20240227192049 28 53 2.0 4.0 0.00 0.00 0.00 78 1005.0
20240227191602 27 78 0.0 4.0 0.00 0.00 0.00 79 1002.5
20240227191543 28 78 1.0 4.0 0.00 0.00 0.00 79 1005.2
20240227191126 27 59 1.0 4.0 0.00 0.00 0.00 80 1002.2
20240227191033 28 69 2.0 4.0 0.00 0.00 0.00 79 1004.9
20240227190601 28 115 2.0 4.0 0.00 0.00 0.00 79 1004.5
20240227190510 27 90 2.0 4.0 0.00 0.00 0.00 79 1001.7
20240227190116 27 95 1.0 4.0 0.00 0.00 0.00 79 1001.7
20240227190035 28 95 2.0 4.0 0.00 0.00 0.00 80 1004.5
20240227185553 27 75 2.0 4.0 0.00 0.00 0.00 80 1001.4
20240227185530 28 73 2.0 4.0 0.00 0.00 0.00 80 1004.2
20240227185129 27 88 1.0 4.0 0.00 0.00 0.00 78 1001.4
20240227185054 27 87 2.0 5.0 0.00 0.00 0.00 78 1004.3
20240227184548 27 86 1.0 5.0 0.00 0.00 0.00 79 1001.9
20240227184526 27 86 1.0 5.0 0.00 0.00 0.00 78 1004.7
20240227184123 27 43 2.0 4.0 0.00 0.00 0.00 79 1001.7
20240227184051 27 28 2.0 4.0 0.00 0.00 0.00 80 1004.6
20240227183546 27 55 2.0 8.0 0.00 0.00 0.00 80 1004.3
20240227183517 27 55 1.0 8.0 0.00 0.00 0.00 80 1001.2
20240227183125 26 28 3.0 8.0 0.00 0.00 0.00 79 1000.9
20240227183040 27 16 4.0 8.0 0.00 0.00 0.00 78 1004.0
20240227182605 26 24 2.0 8.0 0.00 0.00 0.00 80 1001.2
20240227182533 27 76 3.0 8.0 0.00 0.00 0.00 80 1004.3
20240227182139 26 86 3.0 8.0 0.00 0.00 0.00 79 1001.1
20240227182051 27 82 4.0 8.0 0.00 0.00 0.00 80 1004.3
20240227181545 27 78 3.0 5.0 0.00 0.00 0.00 82 1004.3
20240227181506 26 60 1.0 4.0 0.00 0.00 0.00 82 1001.3
20240227181113 26 25 1.0 4.0 0.00 0.00 0.00 82 1001.1
20240227181039 27 23 2.0 4.0 0.00 0.00 0.00 82 1004.2
20240227180645 26 123 2.0 4.0 0.00 0.00 0.00 82 1000.7
20240227180606 27 107 2.0 4.0 0.00 0.00 0.00 83 1004.1
20240227180107 26 123 2.0 4.0 0.00 0.00 0.00 85 1000.6
20240227180040 27 121 2.0 4.0 0.00 0.00 0.00 85 1004.0
20240227175623 26 120 2.0 4.0 0.00 0.00 0.00 85 1000.7
20240227175533 27 78 3.0 4.0 0.00 0.00 0.00 85 1004.0
20240227175056 26 87 1.0 6.0 0.00 0.00 0.00 86 1000.5
20240227175026 27 71 1.0 6.0 0.00 0.00 0.00 86 1003.9
20240227174630 26 91 1.0 6.0 0.00 0.00 0.00 87 1000.7
20240227174551 27 63 2.0 6.0 0.00 0.00 0.00 87 1004.1
20240227174102 26 57 0.0 4.0 0.00 0.00 0.00 87 1000.5
20240227174045 26 57 1.0 4.0 0.00 0.00 0.00 87 1003.9
20240227173625 26 42 1.0 4.0 0.00 0.00 0.00 87 1000.3
20240227173537 26 40 2.0 4.0 0.00 0.00 0.00 87 1003.7
20240227173104 26 50 2.0 3.0 0.00 0.00 0.00 89 1003.7
20240227173008 26 53 1.0 3.0 0.00 0.00 0.00 89 1000.1
20240227172611 26 46 1.0 3.0 0.00 0.00 0.00 89 999.8
20240227172537 26 56 1.0 3.0 0.00 0.00 0.00 89 1003.5
20240227172048 26 75 1.0 3.0 0.00 0.00 0.00 90 999.8
20240227172031 26 76 1.0 3.0 0.00 0.00 0.00 90 1003.5
20240227171618 25 76 1.0 3.0 0.00 0.00 0.00 90 999.6
20240227171555 26 76 2.0 3.0 0.00 0.00 0.00 90 1003.2
20240227171123 25 51 1.0 5.0 0.00 0.00 0.00 90 999.2
20240227171057 26 52 2.0 6.0 0.00 0.00 0.00 89 1003.0
20240227170629 25 70 2.0 8.0 0.00 0.00 0.00 89 999.1
20240227170529 25 38 2.0 8.0 0.00 0.00 0.00 89 1002.9
20240227170054 25 36 2.0 8.0 0.00 0.00 0.00 90 1002.8
20240227170029 25 36 2.0 8.0 0.00 0.00 0.00 90 998.8
20240227165631 25 40 2.0 6.0 0.00 0.00 0.00 90 998.6
20240227165547 25 75 3.0 6.0 0.00 0.00 0.00 90 1002.4
20240227165046 25 45 2.0 8.0 0.00 0.00 0.00 89 1002.4
20240227165006 25 32 0.0 8.0 0.00 0.00 0.00 89 998.3
20240227164611 25 66 3.0 11.0 0.00 0.00 0.00 89 998.1
20240227164539 26 66 3.0 11.0 0.00 0.00 0.00 89 1002.0
20240227164143 25 68 5.0 11.0 0.00 0.00 0.00 89 997.9
20240227164110 26 86 6.0 11.0 0.00 0.00 0.00 89 1002.0
20240227163558 25 69 3.0 9.0 0.00 0.00 0.00 89 998.0
20240227163542 26 49 4.0 9.0 0.00 0.00 0.00 89 1002.2
20240227163117 26 49 4.0 9.0 0.00 0.00 0.00 89 998.4
20240227163036 26 54 4.0 9.0 0.00 0.00 0.00 89 1002.7
20240227162545 26 24 2.0 8.0 0.00 0.00 0.00 89 998.7
20240227162527 26 9 3.0 8.0 0.00 0.00 0.00 88 1002.9
20240227162118 26 340 2.0 10.0 0.00 0.00 0.00 88 999.1
20240227162053 27 9 3.0 10.0 0.00 0.00 0.00 88 1003.2
20240227161548 27 288 3.0 9.0 0.00 0.00 0.00 88 1003.0
20240227161505 27 59 2.0 9.0 0.00 0.00 0.00 88 998.7
20240227161102 27 29 2.0 11.0 0.00 0.00 0.00 87 998.3
20240227161030 27 290 2.0 11.0 0.00 0.00 0.00 87 1002.5
20240227160632 27 15 4.0 11.0 0.00 0.00 0.00 86 997.6
20240227160551 28 26 5.0 11.0 0.00 0.00 0.00 86 1002.0
20240227160101 28 40 3.0 13.0 0.00 0.00 0.00 85 997.3
20240227160041 28 35 3.0 13.0 0.00 0.00 0.00 84 1001.6
20240227155627 28 70 5.0 13.0 0.00 0.00 0.00 83 997.0
20240227155536 29 58 6.0 13.0 0.00 0.00 0.00 82 1001.5
20240227155043 30 88 4.0 10.0 0.00 0.00 0.00 80 1001.5
20240227155014 30 86 4.0 10.0 0.00 0.00 0.00 80 997.1
20240227154621 30 70 3.0 8.0 0.00 0.00 0.00 80 997.0
20240227154538 31 52 2.0 8.0 0.00 0.00 0.00 80 1001.4
20240227154057 30 125 1.0 12.0 0.00 0.00 0.00 79 997.2
20240227154034 31 42 2.0 12.0 0.00 0.00 0.00 79 1001.6
20240227153626 30 38 5.0 13.0 0.00 0.00 0.00 78 996.2
20240227153557 31 41 4.0 17.0 0.00 0.00 0.00 78 1000.5
20240227153029 31 33 8.0 17.0 0.00 0.00 0.00 77 999.8
20240227153001 31 59 6.0 17.0 0.00 0.00 0.00 77 995.2
20240227152612 31 17 8.0 16.0 0.00 0.00 0.00 77 995.0
20240227152553 31 53 8.0 16.0 0.00 0.00 0.00 77 999.7
20240227152049 32 41 7.0 14.0 0.00 0.00 0.00 77 999.7
20240227152003 31 50 6.0 13.0 0.00 0.00 0.00 77 995.1
20240227151621 31 24 5.0 11.0 0.00 0.00 0.00 77 995.0
20240227151537 32 31 5.0 11.0 0.00 0.00 0.00 77 999.6
20240227151034 32 73 5.0 13.0 0.00 0.00 0.00 77 999.5
20240227151006 31 109 5.0 14.0 0.00 0.00 0.00 77 994.8
20240227150618 31 51 3.0 14.0 0.00 0.00 0.00 77 994.5
20240227150558 31 63 3.0 16.0 0.00 0.00 0.00 77 999.2
20240227150118 31 74 6.0 17.0 0.00 0.00 0.00 77 994.1
20240227150031 31 44 7.0 17.0 0.00 0.00 0.00 77 999.0
20240227145546 31 35 8.0 17.0 0.00 0.00 0.00 76 993.8
20240227145524 32 50 9.0 17.0 0.00 0.00 0.00 76 998.6
20240227145118 31 30 8.0 16.0 0.00 0.00 0.00 75 993.1
20240227145049 32 63 9.0 16.0 0.00 0.00 0.00 75 998.0
20240227144544 33 55 8.0 18.0 0.00 0.00 0.00 75 997.7
20240227144505 32 74 7.0 18.0 0.00 0.00 0.00 74 992.7
20240227144110 33 40 8.0 18.0 0.00 0.00 0.00 72 992.2
20240227144037 34 66 8.0 18.0 0.00 0.00 0.00 72 997.2
20240227143532 35 98 5.0 18.0 0.00 0.00 0.00 69 997.4
20240227143505 35 32 5.0 18.0 0.00 0.00 0.00 69 992.4
20240227143105 36 56 7.0 18.0 0.00 0.00 0.00 66 992.2
20240227143025 37 45 8.0 18.0 0.00 0.00 0.00 66 996.9
20240227142639 38 62 6.0 18.0 0.00 0.00 0.00 62 991.6
20240227142546 39 360 8.0 18.0 0.00 0.00 0.00 60 996.5
20240227142107 41 360 6.0 12.0 0.00 0.00 0.00 56 991.4
20240227142039 41 360 5.0 12.0 0.00 0.00 0.00 56 996.1
20240227141534 42 360 0.0 2.0 0.00 0.00 0.00 56 995.5
20240227141510 41 360 0.0 2.0 0.00 0.00 0.00 56 990.4
20240227141119 41 360 0.0 2.0 0.00 0.00 0.00 55 990.3
20240227141057 42 360 0.0 2.0 0.00 0.00 0.00 55 995.4
20240227140624 41 360 0.0 2.0 0.00 0.00 0.00 55 990.0
20240227140529 42 360 1.0 2.0 0.00 0.00 0.00 55 995.3
20240227140054 42 360 0.0 1.0 0.00 0.00 0.00 55 995.3
20240227140029 41 207 0.0 1.0 0.00 0.00 0.00 55 990.0
20240227135632 42 198 0.0 1.0 0.00 0.00 0.00 54 990.0
20240227135549 42 198 0.0 1.0 0.00 0.00 0.00 53 995.2
20240227135103 42 360 0.0 1.0 0.00 0.00 0.00 53 989.9
20240227135044 43 360 0.0 1.0 0.00 0.00 0.00 53 995.1
20240227134626 42 360 0.0 1.0 0.00 0.00 0.00 53 989.9
20240227134539 43 360 0.0 1.0 0.00 0.00 0.00 52 995.2
20240227134059 43 360 0.0 3.0 0.00 0.00 0.00 52 990.0
20240227134033 43 360 0.0 3.0 0.00 0.00 0.00 52 995.3
20240227133629 43 360 1.0 3.0 0.00 0.00 0.00 52 990.1
20240227133526 43 360 1.0 3.0 0.00 0.00 0.00 52 995.3
20240227133109 43 360 0.0 3.0 0.00 0.00 0.00 51 990.0
20240227133047 43 360 1.0 3.0 0.00 0.00 0.00 51 995.2
20240227132542 43 360 1.0 4.0 0.00 0.00 0.00 51 995.3
20240227132511 43 360 0.0 4.0 0.00 0.00 0.00 51 990.1
20240227132118 43 360 0.0 4.0 0.00 0.00 0.00 51 990.1
20240227132034 44 360 1.0 4.0 0.00 0.00 0.00 51 995.3
20240227131535 44 360 1.0 3.0 0.00 0.00 0.00 50 995.2
20240227131505 43 360 0.0 3.0 0.00 0.00 0.00 50 989.9
20240227131119 43 360 1.0 3.0 0.00 0.00 0.00 50 989.9
20240227131041 44 360 1.0 3.0 0.00 0.00 0.00 50 995.2
20240227130536 44 360 2.0 3.0 0.00 0.00 0.00 50 995.2
20240227130504 44 360 1.0 3.0 0.00 0.00 0.00 50 989.9
20240227130117 44 360 0.0 2.0 0.00 0.00 0.00 49 989.9
20240227130030 44 360 0.0 2.0 0.00 0.00 0.00 49 995.1
20240227125554 44 360 0.0 3.0 0.00 0.00 0.00 49 995.1
20240227125509 44 360 0.0 4.0 0.00 0.00 0.00 49 989.9
20240227125120 44 360 0.0 5.0 0.00 0.00 0.00 49 989.9
20240227125049 45 360 1.0 5.0 0.00 0.00 0.00 49 995.1
20240227124601 44 360 1.0 5.0 0.00 0.00 0.00 48 989.8
20240227124540 44 360 1.0 5.0 0.00 0.00 0.00 48 995.0
20240227124126 44 360 1.0 6.0 0.00 0.00 0.00 48 989.7
20240227124033 44 360 1.0 6.0 0.00 0.00 0.00 48 994.9
20240227123601 44 360 2.0 6.0 0.00 0.00 0.00 49 989.6
20240227123526 44 360 3.0 6.0 0.00 0.00 0.00 49 994.8
20240227123131 44 360 2.0 9.0 0.00 0.00 0.00 49 989.6
20240227123051 44 360 2.0 9.0 0.00 0.00 0.00 49 994.8
20240227122600 43 360 3.0 9.0 0.00 0.00 0.00 49 989.7
20240227122543 44 360 3.0 9.0 0.00 0.00 0.00 49 994.9
20240227122123 43 360 2.0 4.0 0.00 0.00 0.00 50 989.7
20240227122038 43 174 2.0 4.0 0.00 0.00 0.00 50 994.9
20240227121606 43 165 2.0 6.0 0.00 0.00 0.00 50 995.0
20240227121503 42 211 1.0 6.0 0.00 0.00 0.00 50 989.7
20240227121109 42 195 1.0 6.0 0.00 0.00 0.00 50 989.7
20240227121040 43 190 1.0 6.0 0.00 0.00 0.00 50 994.9
20240227120634 42 182 2.0 6.0 0.00 0.00 0.00 51 989.6
20240227120536 42 200 2.0 6.0 0.00 0.00 0.00 51 994.8
20240227120107 41 190 1.0 6.0 0.00 0.00 0.00 52 989.4
20240227120032 42 177 2.0 6.0 0.00 0.00 0.00 52 994.6
20240227115541 41 183 1.0 4.0 0.00 0.00 0.00 53 989.6
20240227115524 41 194 1.0 4.0 0.00 0.00 0.00 53 994.9
20240227115110 41 186 1.0 3.0 0.00 0.00 0.00 54 994.9
20240227115011 40 186 1.0 3.0 0.00 0.00 0.00 54 989.7
20240227114618 40 188 1.0 3.0 0.00 0.00 0.00 54 989.8
20240227114542 40 178 1.0 3.0 0.00 0.00 0.00 54 995.1
20240227114153 39 189 1.0 3.0 0.00 0.00 0.00 55 989.9
20240227114051 40 159 1.0 3.0 0.00 0.00 0.00 55 995.2
20240227113603 39 148 0.0 3.0 0.00 0.00 0.00 56 989.7
20240227113547 39 148 1.0 3.0 0.00 0.00 0.00 56 994.9
20240227113125 39 210 0.0 1.0 0.00 0.00 0.00 56 989.9
20240227113042 39 210 0.0 1.0 0.00 0.00 0.00 56 995.1
20240227112552 38 210 0.0 1.0 0.00 0.00 0.00 56 989.9
20240227112536 39 210 0.0 1.0 0.00 0.00 0.00 56 995.2
20240227112117 38 210 0.0 1.0 0.00 0.00 0.00 56 990.0
20240227112029 39 210 0.0 1.0 0.00 0.00 0.00 56 995.2
20240227111547 39 210 0.0 1.0 0.00 0.00 0.00 56 995.1
20240227111506 38 210 0.0 1.0 0.00 0.00 0.00 56 989.9
20240227111115 38 210 0.0 1.0 0.00 0.00 0.00 56 990.0
20240227111041 39 210 1.0 1.0 0.00 0.00 0.00 56 995.2
20240227110531 39 210 0.0 0.0 0.00 0.00 0.00 56 995.3
20240227110506 38 210 0.0 0.0 0.00 0.00 0.00 56 990.1
20240227110112 38 210 0.0 2.0 0.00 0.00 0.00 56 989.9
20240227110100 39 210 0.0 2.0 0.00 0.00 0.00 55 995.3
20240227105621 38 210 0.0 2.0 0.00 0.00 0.00 55 990.0
20240227105534 39 210 0.0 2.0 0.00 0.00 0.00 56 995.2
20240227105150 38 210 0.0 2.0 0.00 0.00 0.00 55 990.1
20240227105035 39 210 0.0 2.0 0.00 0.00 0.00 55 995.4
20240227104601 38 214 0.0 2.0 0.00 0.00 0.00 56 990.3
20240227104530 39 214 0.0 2.0 0.00 0.00 0.00 55 995.6
20240227104131 38 214 0.0 2.0 0.00 0.00 0.00 56 990.3
20240227104051 39 214 1.0 2.0 0.00 0.00 0.00 56 995.6
20240227103555 38 214 1.0 2.0 0.00 0.00 0.00 56 995.6
20240227103503 38 214 1.0 2.0 0.00 0.00 0.00 56 990.4
20240227103110 38 214 1.0 2.0 0.00 0.00 0.00 56 990.4
20240227103047 38 214 1.0 2.0 0.00 0.00 0.00 56 995.7
20240227102619 38 214 0.0 2.0 0.00 0.00 0.00 55 990.5
20240227102548 38 214 0.0 1.0 0.00 0.00 0.00 55 995.8
20240227102044 39 214 0.0 1.0 0.00 0.00 0.00 55 995.9
20240227102008 38 214 0.0 1.0 0.00 0.00 0.00 55 990.5
20240227101612 38 214 0.0 1.0 0.00 0.00 0.00 54 990.5
20240227101536 39 214 0.0 1.0 0.00 0.00 0.00 54 995.9
20240227101031 39 214 0.0 1.0 0.00 0.00 0.00 54 996.0
20240227101009 38 214 0.0 1.0 0.00 0.00 0.00 54 990.6
20240227100615 38 227 0.0 0.0 0.00 0.00 0.00 54 990.7
20240227100557 39 227 0.0 0.0 0.00 0.00 0.00 54 996.1
20240227100121 39 227 0.0 1.0 0.00 0.00 0.00 53 990.7
20240227100041 39 227 0.0 1.0 0.00 0.00 0.00 53 996.1
20240227095532 39 227 0.0 1.0 0.00 0.00 0.00 53 996.2
20240227095502 39 227 0.0 1.0 0.00 0.00 0.00 53 990.8
20240227095117 39 227 0.0 1.0 0.00 0.00 0.00 53 990.8
20240227095103 39 227 0.0 1.0 0.00 0.00 0.00 53 996.2
20240227094626 39 227 0.0 1.0 0.00 0.00 0.00 52 990.9
20240227094536 40 227 0.0 1.0 0.00 0.00 0.00 52 996.3
20240227094056 40 227 0.0 2.0 0.00 0.00 0.00 52 996.2
20240227094011 40 227 0.0 2.0 0.00 0.00 0.00 52 990.8
20240227093620 40 227 0.0 2.0 0.00 0.00 0.00 52 990.8
20240227093528 40 227 0.0 2.0 0.00 0.00 0.00 51 996.3
20240227093054 40 227 0.0 1.0 0.00 0.00 0.00 51 996.3
20240227093026 40 227 0.0 0.0 0.00 0.00 0.00 51 990.9
20240227092630 40 227 0.0 1.0 0.00 0.00 0.00 51 990.9
20240227092550 41 227 0.0 1.0 0.00 0.00 0.00 50 996.3
20240227092108 40 227 0.0 1.0 0.00 0.00 0.00 50 991.0
20240227092045 41 227 0.0 1.0 0.00 0.00 0.00 50 996.5
20240227091539 41 226 0.0 1.0 0.00 0.00 0.00 49 996.4
20240227091510 41 226 0.0 1.0 0.00 0.00 0.00 49 990.9
20240227091116 41 226 0.0 1.0 0.00 0.00 0.00 49 991.1
20240227091033 41 226 0.0 1.0 0.00 0.00 0.00 48 996.5
20240227090554 41 226 0.0 2.0 0.00 0.00 0.00 48 991.1
20240227090526 42 226 0.0 2.0 0.00 0.00 0.00 48 996.5
20240227090130 41 226 0.0 2.0 0.00 0.00 0.00 48 991.4
20240227090052 42 226 0.0 2.0 0.00 0.00 0.00 48 996.8
20240227085607 42 167 0.0 2.0 0.00 0.00 0.00 47 991.4
20240227085547 42 167 0.0 2.0 0.00 0.00 0.00 47 996.9
20240227085043 42 167 1.0 2.0 0.00 0.00 0.00 47 997.0
20240227085007 42 167 0.0 2.0 0.00 0.00 0.00 47 991.5
20240227084614 42 154 0.0 2.0 0.00 0.00 0.00 46 991.5
20240227084532 42 154 0.0 2.0 0.00 0.00 0.00 46 997.0
20240227084150 42 153 0.0 2.0 0.00 0.00 0.00 46 991.6
20240227084056 42 153 1.0 5.0 0.00 0.00 0.00 46 997.1
20240227083544 43 153 0.0 5.0 0.00 0.00 0.00 46 997.2
20240227083516 42 153 0.0 5.0 0.00 0.00 0.00 46 991.7
20240227083126 42 140 0.0 2.0 0.00 0.00 0.00 46 991.8
20240227083038 42 103 0.0 2.0 0.00 0.00 0.00 46 997.3
20240227082603 42 105 0.0 2.0 0.00 0.00 0.00 46 991.9
20240227082533 42 105 0.0 2.0 0.00 0.00 0.00 46 997.4
20240227082140 42 102 0.0 2.0 0.00 0.00 0.00 46 991.9
20240227082057 42 146 0.0 2.0 0.00 0.00 0.00 46 997.5
20240227081556 41 146 1.0 2.0 0.00 0.00 0.00 46 992.0
20240227081532 42 145 1.0 2.0 0.00 0.00 0.00 46 997.5
20240227081126 41 137 0.0 1.0 0.00 0.00 0.00 45 992.1
20240227081026 41 137 0.0 1.0 0.00 0.00 0.00 45 997.7
20240227080610 41 136 0.0 2.0 0.00 0.00 0.00 44 992.2
20240227080549 41 136 0.0 2.0 0.00 0.00 0.00 44 997.8
20240227080124 41 136 0.0 2.0 0.00 0.00 0.00 44 992.4
20240227080050 41 136 1.0 2.0 0.00 0.00 0.00 44 997.9
20240227075604 41 136 1.0 2.0 0.00 0.00 0.00 45 992.4
20240227075546 41 136 1.0 2.0 0.00 0.00 0.00 45 997.9
20240227075130 41 192 0.0 2.0 0.00 0.00 0.00 44 992.4
20240227075041 41 195 1.0 2.0 0.00 0.00 0.00 44 997.9
20240227074608 41 196 0.0 1.0 0.00 0.00 0.00 44 992.5
20240227074535 41 196 0.0 1.0 0.00 0.00 0.00 44 998.1
20240227074145 41 196 0.0 1.0 0.00 0.00 0.00 44 992.7
20240227074105 41 196 1.0 1.0 0.00 0.00 0.00 44 998.2
20240227073604 41 196 0.0 2.0 0.00 0.00 0.00 44 992.7
20240227073539 41 196 0.0 2.0 0.00 0.00 0.00 44 998.3
20240227073033 41 196 0.0 2.0 0.00 0.00 0.00 43 998.4
20240227073006 41 196 0.0 2.0 0.00 0.00 0.00 43 992.9
20240227072612 41 196 0.0 1.0 0.00 0.00 0.00 43 993.0
20240227072527 42 196 0.0 1.0 0.00 0.00 0.00 43 998.6
20240227072053 42 197 0.0 1.0 0.00 0.00 0.00 43 998.8
20240227072022 41 197 0.0 1.0 0.00 0.00 0.00 43 993.2
20240227071627 41 197 0.0 2.0 0.00 0.00 0.00 42 993.0
20240227071548 42 198 0.0 2.0 0.00 0.00 0.00 42 998.6
20240227071103 42 199 0.0 2.0 0.00 0.00 0.00 42 993.0
20240227071038 42 199 0.0 2.0 0.00 0.00 0.00 42 998.6
20240227070630 42 199 0.0 1.0 0.00 0.00 0.00 42 993.1
20240227070532 42 199 1.0 1.0 0.00 0.00 0.00 42 998.8
20240227070112 42 200 0.0 1.0 0.00 0.00 0.00 41 993.2
20240227070100 42 200 0.0 1.0 0.00 0.00 0.00 41 998.9
20240227065624 42 360 0.0 1.0 0.00 0.00 0.00 41 993.2
20240227065554 43 360 0.0 1.0 0.00 0.00 0.00 41 999.0
20240227065103 43 360 0.0 2.0 0.00 0.00 0.00 40 993.4
20240227065046 43 360 0.0 2.0 0.00 0.00 0.00 40 999.1
20240227064633 43 360 0.0 2.0 0.00 0.00 0.00 40 993.5
20240227064541 43 360 0.0 2.0 0.00 0.00 0.00 40 999.2
20240227064113 43 360 0.0 2.0 0.00 0.00 0.00 39 993.5
20240227064035 44 360 0.0 2.0 0.00 0.00 0.00 39 999.2
20240227063547 43 360 0.0 4.0 0.00 0.00 0.00 39 993.6
20240227063528 44 360 1.0 4.0 0.00 0.00 0.00 39 999.3
20240227063124 43 360 1.0 4.0 0.00 0.00 0.00 39 993.6
20240227063054 44 360 1.0 4.0 0.00 0.00 0.00 39 999.3
20240227062603 44 360 1.0 3.0 0.00 0.00 0.00 39 993.7
20240227062547 44 360 1.0 3.0 0.00 0.00 0.00 39 999.5
20240227062133 44 360 1.0 3.0 0.00 0.00 0.00 38 993.9
20240227062037 44 360 1.0 3.0 0.00 0.00 0.00 38 999.7
20240227061606 44 360 1.0 3.0 0.00 0.00 0.00 38 994.0
20240227061530 44 360 1.0 3.0 0.00 0.00 0.00 38 999.7
20240227061043 44 360 1.0 3.0 0.00 0.00 0.00 37 994.1
20240227061025 45 360 1.0 3.0 0.00 0.00 0.00 37 999.8
20240227060610 44 360 1.0 3.0 0.00 0.00 0.00 37 994.1
20240227060544 45 360 2.0 3.0 0.00 0.00 0.00 37 999.9
20240227060038 45 360 1.0 3.0 0.00 0.00 0.00 36 1000.0
20240227060017 45 360 0.0 3.0 0.00 0.00 0.00 36 994.2
20240227055608 45 360 1.0 3.0 0.00 0.00 0.00 36 994.2
20240227055531 46 360 1.0 3.0 0.00 0.00 0.00 36 1000.1
20240227055142 45 360 0.0 4.0 0.00 0.00 0.00 35 994.3
20240227055034 46 360 1.0 4.0 0.00 0.00 0.00 35 1000.1
20240227054602 47 360 2.0 4.0 0.00 0.00 0.00 35 1000.1
20240227054517 46 360 2.0 4.0 0.00 0.00 0.00 35 994.3
20240227054118 47 360 0.0 3.0 0.00 0.00 0.00 34 994.2
20240227054034 47 360 1.0 3.0 0.00 0.00 0.00 34 1000.1
20240227053655 47 360 1.0 8.0 0.00 0.00 0.00 34 994.3
20240227053555 48 360 1.0 8.0 0.00 0.00 0.00 34 1000.1
20240227053102 47 360 1.0 8.0 0.00 0.00 0.00 34 994.5
20240227053029 48 360 2.0 8.0 0.00 0.00 0.00 34 1000.4
20240227052639 48 360 1.0 6.0 0.00 0.00 0.00 34 994.5
20240227052551 48 360 2.0 6.0 0.00 0.00 0.00 34 1000.4
20240227052057 48 360 3.0 6.0 0.00 0.00 0.00 34 994.5
20240227052026 48 360 3.0 6.0 0.00 0.00 0.00 34 1000.4
20240227051632 48 360 2.0 6.0 0.00 0.00 0.00 34 994.5
20240227051528 48 360 3.0 6.0 0.00 0.00 0.00 35 1000.5
20240227051146 48 360 3.0 6.0 0.00 0.00 0.00 34 994.5
20240227051052 48 360 3.0 6.0 0.00 0.00 0.00 34 1000.4
20240227050601 47 360 2.0 6.0 0.00 0.00 0.00 34 994.5
20240227050524 48 360 3.0 6.0 0.00 0.00 0.00 34 1000.5
20240227050138 47 360 1.0 4.0 0.00 0.00 0.00 34 994.5
20240227050049 48 360 2.0 4.0 0.00 0.00 0.00 34 1000.6
20240227045613 48 176 1.0 5.0 0.00 0.00 0.00 33 994.6
20240227045540 48 207 2.0 5.0 0.00 0.00 0.00 33 1000.6
20240227045048 48 202 1.0 5.0 0.00 0.00 0.00 33 994.6
20240227045031 48 219 2.0 5.0 0.00 0.00 0.00 33 1000.6
20240227044620 48 207 1.0 5.0 0.00 0.00 0.00 33 994.8
20240227044524 48 204 2.0 5.0 0.00 0.00 0.00 33 1000.7
20240227044051 48 221 1.0 4.0 0.00 0.00 0.00 33 1000.9
20240227044027 48 221 1.0 4.0 0.00 0.00 0.00 32 994.9
20240227043634 48 178 2.0 4.0 0.00 0.00 0.00 32 994.8
20240227043545 49 200 2.0 4.0 0.00 0.00 0.00 32 1000.9
20240227043112 48 195 2.0 4.0 0.00 0.00 0.00 32 995.0
20240227043038 49 195 2.0 4.0 0.00 0.00 0.00 32 1001.0
20240227042551 48 210 1.0 4.0 0.00 0.00 0.00 32 995.1
20240227042534 49 196 2.0 4.0 0.00 0.00 0.00 32 1000.9
20240227042127 49 226 1.0 4.0 0.00 0.00 0.00 31 995.1
20240227042102 49 226 2.0 4.0 0.00 0.00 0.00 31 1001.0
20240227041537 50 235 1.0 2.0 0.00 0.00 0.00 31 1001.1
20240227041512 49 236 0.0 2.0 0.00 0.00 0.00 31 995.1
20240227041121 50 219 0.0 2.0 0.00 0.00 0.00 30 995.2
20240227041032 50 219 0.0 2.0 0.00 0.00 0.00 30 1001.2
20240227040558 51 233 1.0 5.0 0.00 0.00 0.00 30 1001.2
20240227040507 50 223 0.0 5.0 0.00 0.00 0.00 30 995.2
20240227040121 50 199 1.0 6.0 0.00 0.00 0.00 29 995.2
20240227040053 51 177 2.0 6.0 0.00 0.00 0.00 29 1001.1
20240227035632 51 225 1.0 8.0 0.00 0.00 0.00 29 995.2
20240227035538 51 223 2.0 8.0 0.00 0.00 0.00 29 1001.2
20240227035054 51 240 3.0 9.0 0.00 0.00 0.00 29 995.2
20240227035033 52 224 4.0 9.0 0.00 0.00 0.00 29 1001.1
20240227034627 51 178 3.0 9.0 0.00 0.00 0.00 28 995.2
20240227034529 52 193 4.0 9.0 0.00 0.00 0.00 28 1001.2
20240227034111 52 229 2.0 9.0 0.00 0.00 0.00 28 995.2
20240227034032 52 232 2.0 9.0 0.00 0.00 0.00 28 1001.2
20240227033619 52 315 3.0 9.0 0.00 0.00 0.00 28 995.2
20240227033525 52 191 3.0 9.0 0.00 0.00 0.00 28 1001.2
20240227033050 52 209 2.0 9.0 0.00 0.00 0.00 28 1001.2
20240227033022 52 235 3.0 9.0 0.00 0.00 0.00 28 995.3
20240227032630 52 194 3.0 10.0 0.00 0.00 0.00 28 995.3
20240227032544 53 207 3.0 10.0 0.00 0.00 0.00 28 1001.2
20240227032108 52 232 2.0 10.0 0.00 0.00 0.00 27 995.3
20240227032038 53 219 3.0 10.0 0.00 0.00 0.00 27 1001.3
20240227031554 52 223 3.0 13.0 0.00 0.00 0.00 27 995.2
20240227031529 53 205 4.0 13.0 0.00 0.00 0.00 27 1001.2
20240227031112 52 204 4.0 10.0 0.00 0.00 0.00 27 995.2
20240227031023 53 223 4.0 10.0 0.00 0.00 0.00 27 1001.1
20240227030649 52 192 3.0 11.0 0.00 0.00 0.00 27 995.1
20240227030552 53 182 4.0 11.0 0.00 0.00 0.00 27 1001.0
20240227030110 53 202 3.0 11.0 0.00 0.00 0.00 27 995.1
20240227030045 53 200 3.0 11.0 0.00 0.00 0.00 27 1001.0
20240227025538 53 246 3.0 6.0 0.00 0.00 0.00 26 1001.1
20240227025511 53 214 3.0 8.0 0.00 0.00 0.00 26 995.1
20240227025118 53 184 2.0 11.0 0.00 0.00 0.00 26 995.1
20240227025033 53 193 2.0 11.0 0.00 0.00 0.00 26 1001.0
20240227024554 53 194 4.0 11.0 0.00 0.00 0.00 26 995.1
20240227024526 54 265 5.0 11.0 0.00 0.00 0.00 25 1001.1
20240227024126 53 261 3.0 10.0 0.00 0.00 0.00 25 995.2
20240227024051 54 161 2.0 10.0 0.00 0.00 0.00 25 1001.1
20240227023603 53 218 4.0 11.0 0.00 0.00 0.00 25 995.2
20240227023545 54 259 5.0 11.0 0.00 0.00 0.00 25 1001.1
20240227023133 53 232 5.0 8.0 0.00 0.00 0.00 25 995.2
20240227023044 54 162 5.0 9.0 0.00 0.00 0.00 25 1001.1
20240227022608 53 213 3.0 9.0 0.00 0.00 0.00 24 995.2
20240227022535 54 179 3.0 9.0 0.00 0.00 0.00 24 1001.1
20240227022031 54 170 4.0 10.0 0.00 0.00 0.00 24 1001.1
20240227022004 53 222 4.0 10.0 0.00 0.00 0.00 24 995.1
20240227021613 53 203 5.0 11.0 0.00 0.00 0.00 23 995.2
20240227021533 54 215 4.0 8.0 0.00 0.00 0.00 23 1001.1
20240227021122 54 223 3.0 8.0 0.00 0.00 0.00 23 995.2
20240227021055 54 207 4.0 8.0 0.00 0.00 0.00 23 1001.0
20240227020623 54 235 3.0 7.0 0.00 0.00 0.00 22 995.1
20240227020531 54 190 4.0 7.0 0.00 0.00 0.00 22 1001.0
20240227020152 54 178 2.0 6.0 0.00 0.00 0.00 22 995.2
20240227020038 54 183 3.0 6.0 0.00 0.00 0.00 22 1001.2
20240227015605 54 196 1.0 6.0 0.00 0.00 0.00 21 995.2
20240227015531 55 246 2.0 6.0 0.00 0.00 0.00 21 1001.2
20240227015134 55 230 2.0 5.0 0.00 0.00 0.00 21 995.3
20240227015100 55 250 3.0 5.0 0.00 0.00 0.00 20 1001.1
20240227014549 55 215 1.0 5.0 0.00 0.00 0.00 19 995.3
20240227014533 56 215 1.0 5.0 0.00 0.00 0.00 19 1001.1
20240227014118 55 221 1.0 4.0 0.00 0.00 0.00 18 995.2
20240227014052 56 282 1.0 4.0 0.00 0.00 0.00 18 1001.1
20240227013546 56 192 2.0 4.0 0.00 0.00 0.00 17 1001.1
20240227013506 56 217 1.0 4.0 0.00 0.00 0.00 17 995.2
20240227013112 56 222 1.0 4.0 0.00 0.00 0.00 17 995.0
20240227013040 57 221 1.0 4.0 0.00 0.00 0.00 17 1000.9
20240227012634 56 205 1.0 7.0 0.00 0.00 0.00 16 994.9
20240227012535 57 236 1.0 7.0 0.00 0.00 0.00 16 1000.8
20240227012102 57 223 3.0 9.0 0.00 0.00 0.00 16 994.9
20240227012031 57 240 4.0 9.0 0.00 0.00 0.00 16 1000.8
20240227011627 57 219 3.0 9.0 0.00 0.00 0.00 16 994.9
20240227011525 57 221 4.0 8.0 0.00 0.00 0.00 16 1000.8
20240227011104 57 245 3.0 9.0 0.00 0.00 0.00 16 994.9
20240227011047 58 203 3.0 11.0 0.00 0.00 0.00 16 1000.8
20240227010614 57 202 3.0 11.0 0.00 0.00 0.00 16 994.9
20240227010552 58 265 3.0 11.0 0.00 0.00 0.00 16 1000.9
20240227010139 57 236 5.0 11.0 0.00 0.00 0.00 16 994.9
20240227010045 58 348 4.0 7.0 0.00 0.00 0.00 15 1000.8
20240227005608 58 268 3.0 10.0 0.00 0.00 0.00 16 994.7
20240227005538 58 265 3.0 10.0 0.00 0.00 0.00 16 1000.8
20240227005135 58 195 2.0 10.0 0.00 0.00 0.00 16 994.9
20240227005056 58 219 4.0 10.0 0.00 0.00 0.00 16 1000.8
20240227004531 58 215 3.0 8.0 0.00 0.00 0.00 16 1000.9
20240227004514 58 196 3.0 8.0 0.00 0.00 0.00 16 994.9
20240227004107 58 228 2.0 11.0 0.00 0.00 0.00 16 994.8
20240227004023 59 186 3.0 11.0 0.00 0.00 0.00 16 1000.8
20240227003638 58 249 2.0 11.0 0.00 0.00 0.00 16 994.6
20240227003549 59 298 3.0 11.0 0.00 0.00 0.00 17 1000.7
20240227003106 58 265 1.0 7.0 0.00 0.00 0.00 18 994.8
20240227003042 59 247 2.0 7.0 0.00 0.00 0.00 18 1000.8
20240227002630 59 205 1.0 7.0 0.00 0.00 0.00 18 994.8
20240227002536 59 244 2.0 7.0 0.00 0.00 0.00 18 1000.8
20240227002100 59 211 2.0 8.0 0.00 0.00 0.00 18 994.8
20240227002031 59 243 3.0 8.0 0.00 0.00 0.00 17 1000.9
20240227001624 59 216 1.0 4.0 0.00 0.00 0.00 17 994.8
20240227001526 60 215 2.0 4.0 0.00 0.00 0.00 17 1000.9
20240227001047 60 226 2.0 7.0 0.00 0.00 0.00 17 1000.9
20240227001003 59 253 1.0 7.0 0.00 0.00 0.00 17 994.8
20240227000552 60 257 2.0 7.0 0.00 0.00 0.00 17 1000.9
20240227000508 60 281 2.0 7.0 0.00 0.00 0.00 17 994.8
20240227000114 59 254 2.0 8.0 0.00 0.00 0.00 18 994.9
20240227000045 60 217 2.0 8.0 0.00 0.00 0.00 18 1001.0
20240226235637 60 239 2.0 8.0 0.00 0.00 0.00 18 994.8
20240226235538 60 283 2.0 8.0 0.00 0.00 0.00 18 1000.9
20240226235104 60 284 2.0 5.0 0.00 0.00 0.00 18 994.7
20240226235033 60 299 2.0 5.0 0.00 0.00 0.00 18 1000.9
20240226234630 60 254 2.0 7.0 0.00 0.00 0.00 18 994.7
20240226234527 60 263 3.0 7.0 0.00 0.00 0.00 18 1000.9
20240226234109 60 277 1.0 8.0 0.00 0.00 0.00 18 994.7
20240226234052 60 277 2.0 8.0 0.00 0.00 0.00 18 1000.9
20240226233548 60 243 2.0 8.0 0.00 0.00 0.00 18 1000.9
20240226233504 60 304 2.0 8.0 0.00 0.00 0.00 18 994.7
20240226233119 60 308 1.0 8.0 0.00 0.00 0.00 18 994.7
20240226233041 60 292 2.0 8.0 0.00 0.00 0.00 18 1001.0
20240226232611 60 253 4.0 9.0 0.00 0.00 0.00 17 1001.1
20240226232503 60 314 2.0 9.0 0.00 0.00 0.00 17 994.7
20240226232118 60 292 3.0 8.0 0.00 0.00 0.00 17 994.6
20240226232045 61 249 3.0 8.0 0.00 0.00 0.00 17 1000.9
20240226231608 60 267 3.0 7.0 0.00 0.00 0.00 17 994.7
20240226231536 61 287 3.0 7.0 0.00 0.00 0.00 17 1001.0
20240226231126 60 308 3.0 7.0 0.00 0.00 0.00 18 994.7
20240226231032 61 267 3.0 7.0 0.00 0.00 0.00 18 1001.1
20240226230602 61 280 2.0 9.0 0.00 0.00 0.00 18 994.8
20240226230525 61 273 2.0 9.0 0.00 0.00 0.00 18 1001.0
20240226230050 62 273 3.0 9.0 0.00 0.00 0.00 17 1001.1
20240226230002 61 308 2.0 9.0 0.00 0.00 0.00 17 994.8
20240226225614 62 293 4.0 9.0 0.00 0.00 0.00 17 994.8
20240226225544 62 242 4.0 9.0 0.00 0.00 0.00 17 1001.1
20240226225057 62 337 4.0 12.0 0.00 0.00 0.00 17 994.8
20240226225039 63 280 4.0 12.0 0.00 0.00 0.00 17 1001.1